Wetterdaten: aktuell Samstag, 08.08.2020 23:45
Datum Zeit Auentemp. Feuchte A. Luftdruck Niederschl. Wind Richtung Richtung Sonnenschein UV Windben
08.08.2020 23:45 19,6 C 75 % 1017,3 hPa 0,0 l/m 2,5 km/h N 355 0 min 0,0 UV-I 4,8 km/h
08.08.2020 22:45 20,8 C 74 % 1017,4 hPa 0,0 l/m 1,1 km/h NO 53 0 min 0,0 UV-I 3,2 km/h
08.08.2020 21:45 22,7 C 64 % 1017,6 hPa 0,0 l/m 2,2 km/h NO 55 0 min 0,0 UV-I 3,2 km/h
08.08.2020 20:45 25,9 C 57 % 1017,4 hPa 0,0 l/m 1,0 km/h O-NO 57 40 min 0,0 UV-I 3,2 km/h
08.08.2020 19:45 29,6 C 38 % 1017,3 hPa 0,0 l/m 1,6 km/h NO 56 60 min 0,0 UV-I 3,2 km/h
08.08.2020 18:45 29,8 C 38 % 1017,2 hPa 0,0 l/m 2,5 km/h NO 51 60 min 0,5 UV-I 6,4 km/h
08.08.2020 17:45 30,7 C 36 % 1017,5 hPa 0,0 l/m 3,0 km/h O-SO 115 60 min 1,1 UV-I 8,0 km/h
08.08.2020 16:45 31,6 C 33 % 1017,7 hPa 0,0 l/m 3,8 km/h O-SO 103 60 min 2,6 UV-I 11,3 km/h
08.08.2020 15:45 31,8 C 35 % 1017,8 hPa 0,0 l/m 4,1 km/h O-NO 72 60 min 4,1 UV-I 8,0 km/h
08.08.2020 14:45 31,1 C 44 % 1018,1 hPa 0,0 l/m 5,7 km/h O-SO 113 60 min 5,3 UV-I 14,5 km/h
08.08.2020 13:45 30,0 C 47 % 1018,3 hPa 0,0 l/m 7,3 km/h O 80 60 min 5,8 UV-I 12,9 km/h
08.08.2020 12:45 29,3 C 51 % 1018,8 hPa 0,0 l/m 6,8 km/h O 93 60 min 5,6 UV-I 16,1 km/h
08.08.2020 11:45 27,5 C 54 % 1019,0 hPa 0,0 l/m 3,4 km/h W-SW 243 60 min 4,7 UV-I 11,3 km/h
08.08.2020 10:45 26,4 C 57 % 1019,4 hPa 0,0 l/m 2,3 km/h O 93 60 min 3,4 UV-I 4,8 km/h
08.08.2020 09:45 23,5 C 69 % 1019,5 hPa 0,0 l/m 3,2 km/h O 98 40 min 2,0 UV-I 8,0 km/h
08.08.2020 08:45 19,1 C 81 % 1019,6 hPa 0,0 l/m 2,1 km/h N-NW 331 0 min 0,7 UV-I 4,8 km/h
08.08.2020 07:45 15,9 C 89 % 1019,6 hPa 0,0 l/m 1,6 km/h NW 315 0 min 0,0 UV-I 4,8 km/h
08.08.2020 06:45 14,2 C 90 % 1019,5 hPa 0,0 l/m 0,0 km/h NW 315 0 min 0,0 UV-I 1,6 km/h
08.08.2020 05:45 15,0 C 87 % 1019,0 hPa 0,0 l/m 0,0 km/h NW 315 0 min 0,0 UV-I 1,6 km/h
08.08.2020 04:45 16,0 C 85 % 1018,8 hPa 0,0 l/m 1,6 km/h W-NW 292 0 min 0,0 UV-I 4,8 km/h
08.08.2020 03:45 16,3 C 84 % 1018,5 hPa 0,0 l/m 1,6 km/h NW 315 0 min 0,0 UV-I 3,2 km/h
08.08.2020 02:45 16,1 C 86 % 1018,5 hPa 0,0 l/m 1,6 km/h N-NW 337 0 min 0,0 UV-I 3,2 km/h
08.08.2020 01:45 16,9 C 85 % 1018,6 hPa 0,0 l/m 0,0 km/h N-NW 337 0 min 0,0 UV-I 1,6 km/h
08.08.2020 00:45 18,1 C 82 % 1018,7 hPa 0,0 l/m 1,6 km/h N-NW 337 0 min 0,0 UV-I 3,2 km/h
08.08.2020 00:00 18,8 C 78 % 1018,7 hPa 0,0 l/m 1,6 km/h N-NW 337 0 min 0,0 UV-I 3,2 km/h
_ Min-Zeit 06:45 16:30 19:40 - 07:25 - - - - 06:20
Minimum _ 14,2 C 32 % 1017,2 hPa - 0,0 km/h - - - - 0,0 km/h
_ Max-Zeit 16:10 07:20 07:40 23:45 15:35 - - 20:30 13:50 16:00
Maximum _ 32,2 C 90 % 1019,7 hPa 0,0 l/m 7,6 km/h
NO
- - 5 min 5,8 UV-I 16,1 km/h
O
Durchschnitt _ 23,3 C 64 % 1018,4 hPa #0,0 l/m 2,9 km/h N-NW - #11:20 h 3,3 UV-I 6,2 km/h